Time;durP1;ratioP1;P1;durP2;ratioP2;P2;SDS_P1;SDS_P2;PMS_P1;PMS_P2;Temp;Humidity;BMP_temperature;BMP_pressure;BME280_temperature;BME280_humidity;BME280_pressure;Samples;Min_cycle;Max_cycle;Signal;HPM_P1;HPM_P2
2022/02/14 00:01:47;;;;;;;12.97;10.50;;;6.80;1.00;7.10;99749.00;;;;5043163;28;20475;-79
2022/02/14 00:04:15;;;;;;;11.10;9.67;;;6.80;1.00;7.10;99733.00;;;;5047444;28;20457;-79
2022/02/14 00:06:43;;;;;;;13.67;8.80;;;6.90;1.00;7.10;99731.00;;;;5046058;28;20467;-79
2022/02/14 00:09:12;;;;;;;13.00;10.37;;;6.90;1.00;7.10;99742.00;;;;5060246;28;20455;-77
2022/02/14 00:11:40;;;;;;;14.70;11.30;;;6.90;1.00;7.10;99740.00;;;;5054862;28;21104;-79
2022/02/14 00:14:10;;;;;;;13.90;11.13;;;6.90;1.00;7.20;99725.00;;;;5050573;28;20461;-78
2022/02/14 00:16:38;;;;;;;13.17;10.73;;;6.90;1.00;7.10;99726.00;;;;5042882;28;20560;-79
2022/02/14 00:19:06;;;;;;;14.67;11.60;;;6.90;1.00;7.10;99731.00;;;;5035181;28;20478;-78
2022/02/14 00:21:35;;;;;;;11.37;9.00;;;6.80;1.00;7.10;99723.00;;;;5065744;28;20481;-78
2022/02/14 00:24:06;;;;;;;15.90;11.93;;;6.80;1.00;6.90;99726.00;;;;5035062;28;20530;-79
2022/02/14 00:26:34;;;;;;;14.30;9.67;;;6.60;1.00;6.90;99719.00;;;;5038352;28;20464;-77
2022/02/14 00:29:03;;;;;;;11.23;9.03;;;6.60;1.00;6.80;99721.00;;;;5034704;28;21470;-80
2022/02/14 00:31:33;;;;;;;10.40;8.80;;;6.50;1.00;6.80;99698.00;;;;5043255;28;20481;-79
2022/02/14 00:34:02;;;;;;;12.20;9.73;;;6.50;1.00;6.80;99720.00;;;;5037260;28;20457;-81
2022/02/14 00:36:30;;;;;;;12.53;9.60;;;6.50;1.00;6.80;99700.00;;;;5053234;28;20461;-78
2022/02/14 00:38:58;;;;;;;13.37;10.10;;;6.50;1.00;6.90;99711.00;;;;5035978;28;20538;-78
2022/02/14 00:41:27;;;;;;;14.57;10.20;;;6.50;1.00;6.90;99692.00;;;;5036695;28;20486;-78
2022/02/14 00:43:55;;;;;;;10.93;8.77;;;6.60;1.00;6.90;99702.00;;;;5044151;28;20817;-78
2022/02/14 00:46:23;;;;;;;10.97;8.80;;;6.60;1.00;6.90;99690.00;;;;5066017;28;20551;-78
2022/02/14 00:48:53;;;;;;;11.10;8.80;;;6.60;1.00;6.90;99694.00;;;;5043466;28;20459;-78
2022/02/14 00:51:23;;;;;;;11.23;9.83;;;6.70;1.00;6.90;99655.00;;;;5065011;28;20485;-78
2022/02/14 00:53:51;;;;;;;11.20;10.00;;;6.70;1.00;7.00;99670.00;;;;5036140;28;20453;-77
2022/02/14 00:56:19;;;;;;;14.07;9.40;;;6.70;1.00;7.10;99681.00;;;;5035857;28;20456;-78
2022/02/14 00:58:48;;;;;;;12.80;8.97;;;7.00;1.00;7.10;99686.00;;;;5033969;28;20950;-79
2022/02/14 01:01:17;;;;;;;13.17;10.30;;;6.80;1.00;7.00;99671.00;;;;5062997;28;20468;-78
2022/02/14 01:03:45;;;;;;;10.57;8.70;;;6.80;1.00;7.10;99667.00;;;;5035382;28;20460;-77
2022/02/14 01:06:15;;;;;;;11.10;9.90;;;6.80;1.00;7.10;99679.00;;;;5030510;28;20461;-77
2022/02/14 01:08:43;;;;;;;11.63;9.60;;;6.80;1.00;7.00;99678.00;;;;5033709;28;20457;-76
2022/02/14 01:11:11;;;;;;;12.93;8.70;;;6.70;1.00;7.10;99671.00;;;;5033944;28;20494;-77
2022/02/14 01:13:40;;;;;;;11.60;9.03;;;6.80;1.00;7.00;99669.00;;;;5042881;28;20464;-77
2022/02/14 01:16:08;;;;;;;11.07;9.27;;;6.80;1.00;7.10;99668.00;;;;5034636;28;20554;-78
2022/02/14 01:18:36;;;;;;;13.47;8.77;;;6.80;1.00;7.00;99666.00;;;;5033988;28;20467;-78
2022/02/14 01:21:05;;;;;;;11.57;8.40;;;6.70;1.00;7.00;99648.00;;;;5037322;28;20503;-79
2022/02/14 01:23:35;;;;;;;10.83;8.40;;;6.70;1.00;6.90;99658.00;;;;5037607;28;20511;-79
2022/02/14 01:26:03;;;;;;;11.33;8.63;;;6.60;1.00;6.90;99645.00;;;;5036838;28;20459;-79
2022/02/14 01:28:32;;;;;;;9.50;8.27;;;6.50;1.00;6.80;99633.00;;;;5038097;28;20463;-79
2022/02/14 01:31:00;;;;;;;10.13;8.13;;;6.40;1.00;6.70;99663.00;;;;5073098;28;20492;-78
2022/02/14 01:33:29;;;;;;;10.13;9.10;;;6.30;1.00;6.60;99658.00;;;;5038419;28;20453;-77
2022/02/14 01:35:57;;;;;;;9.13;8.10;;;6.20;1.00;6.50;99654.00;;;;5074233;28;20971;-78
2022/02/14 01:38:25;;;;;;;12.43;9.20;;;6.10;1.00;6.50;99649.00;;;;5037764;28;20464;-77
2022/02/14 01:40:55;;;;;;;8.90;7.50;;;6.30;1.00;6.30;99565.00;;;;5037966;28;20504;-78
2022/02/14 01:43:23;;;;;;;11.70;8.63;;;5.90;1.00;6.30;99630.00;;;;5040388;28;20464;-79
2022/02/14 01:45:51;;;;;;;10.87;9.77;;;6.00;1.00;6.20;99642.00;;;;5043539;28;20443;-77
2022/02/14 01:48:20;;;;;;;10.70;7.90;;;5.70;1.00;6.20;99612.00;;;;5055891;28;20432;-76
2022/02/14 01:50:49;;;;;;;9.47;8.40;;;5.70;1.00;6.10;99599.00;;;;5054286;28;20484;-77
2022/02/14 01:53:18;;;;;;;10.83;9.00;;;5.70;1.00;6.10;99623.00;;;;5054766;28;20522;-77
2022/02/14 01:55:46;;;;;;;11.13;9.03;;;5.60;1.00;6.00;99614.00;;;;5060495;28;20445;-77
2022/02/14 01:58:16;;;;;;;9.83;8.50;;;5.50;1.00;5.90;99608.00;;;;5061195;28;20475;-77
2022/02/14 02:00:44;;;;;;;11.97;9.77;;;5.50;1.00;5.80;99626.00;;;;5053774;28;20482;-78
2022/02/14 02:03:13;;;;;;;9.80;8.80;;;5.40;1.00;5.80;99611.00;;;;5053390;28;20451;-77
2022/02/14 02:05:43;;;;;;;9.70;8.70;;;5.30;1.00;5.80;99610.00;;;;5057640;28;20462;-77
2022/02/14 02:08:12;;;;;;;8.27;7.37;;;5.30;1.00;5.90;99611.00;;;;5092121;28;20543;-76
2022/02/14 02:10:40;;;;;;;10.40;8.50;;;5.30;1.00;5.80;99602.00;;;;5058137;28;20536;-79
2022/02/14 02:13:08;;;;;;;10.93;8.53;;;5.30;1.00;5.70;99567.00;;;;5055860;28;20527;-78
2022/02/14 02:15:38;;;;;;;9.93;7.97;;;5.20;1.00;5.70;99605.00;;;;5058902;28;20692;-77
2022/02/14 02:18:06;;;;;;;10.07;8.50;;;5.20;1.00;5.70;99598.00;;;;5057278;28;20490;-77
2022/02/14 02:20:35;;;;;;;11.60;8.03;;;5.20;1.00;5.70;99607.00;;;;5058132;28;20476;-77
2022/02/14 02:23:04;;;;;;;11.10;8.80;;;5.20;1.00;5.60;99603.00;;;;5055224;28;20492;-77
2022/02/14 02:25:33;;;;;;;10.50;9.13;;;5.20;1.00;5.50;99597.00;;;;5059301;28;20536;-77
2022/02/14 02:28:02;;;;;;;13.43;9.20;;;5.10;1.00;5.60;99597.00;;;;5053990;28;20463;-77
2022/02/14 02:30:30;;;;;;;13.00;9.50;;;5.20;1.00;5.70;99590.00;;;;5053015;28;20463;-79
2022/02/14 02:32:58;;;;;;;15.47;9.50;;;5.30;1.00;5.80;99580.00;;;;5046829;28;20467;-78
2022/02/14 02:35:26;;;;;;;12.33;9.70;;;5.30;1.00;5.60;99566.00;;;;5044063;28;20457;-79
2022/02/14 02:37:55;;;;;;;11.33;9.03;;;5.30;1.00;5.70;99564.00;;;;5049739;28;20495;-78
2022/02/14 02:40:23;;;;;;;11.17;8.50;;;5.20;1.00;5.40;99574.00;;;;5049062;28;21015;-78
2022/02/14 02:42:53;;;;;;;15.70;9.27;;;5.10;1.00;5.50;99569.00;;;;5051390;28;20492;-77
2022/02/14 02:45:22;;;;;;;11.50;9.00;;;5.10;1.00;5.50;99551.00;;;;5052788;28;21996;-79
2022/02/14 02:47:50;;;;;;;12.20;8.07;;;5.00;1.00;5.50;99548.00;;;;5055181;28;20524;-77
2022/02/14 02:50:18;;;;;;;10.30;8.40;;;5.00;1.00;5.40;99567.00;;;;5050447;28;20470;-77
2022/02/14 02:52:46;;;;;;;11.13;8.50;;;4.90;1.00;5.30;99542.00;;;;5053593;28;20457;-78
2022/02/14 02:55:15;;;;;;;10.13;8.60;;;4.90;1.00;5.20;99511.00;;;;5055834;28;20489;-78
2022/02/14 02:57:44;;;;;;;9.70;8.00;;;5.20;1.00;5.20;99549.00;;;;5071554;28;20469;-78
2022/02/14 03:00:15;;;;;;;11.53;8.67;;;4.80;1.00;5.20;99543.00;;;;5086059;28;20495;-78
2022/02/14 03:02:45;;;;;;;9.60;8.00;;;4.80;1.00;5.30;99540.00;;;;5056022;28;20480;-76
2022/02/14 03:05:13;;;;;;;10.50;7.90;;;4.80;1.00;5.40;99556.00;;;;5056603;28;20523;-77
2022/02/14 03:07:42;;;;;;;9.57;7.93;;;4.80;1.00;5.20;99542.00;;;;5073864;28;20483;-77
2022/02/14 03:10:10;;;;;;;12.40;9.60;;;4.80;1.00;5.20;99535.00;;;;5089867;28;20480;-78
2022/02/14 03:12:38;;;;;;;9.87;8.20;;;4.80;1.00;5.20;99534.00;;;;5050384;28;21095;-79
2022/02/14 03:15:08;;;;;;;8.93;7.73;;;4.70;1.00;5.20;99524.00;;;;5038430;28;20461;-79
2022/02/14 03:17:38;;;;;;;8.37;7.47;;;4.70;1.00;5.20;99526.00;;;;5037628;28;20476;-78
2022/02/14 03:20:07;;;;;;;10.73;8.10;;;4.80;1.00;5.00;99527.00;;;;5039264;28;20491;-79
2022/02/14 03:22:35;;;;;;;11.07;7.63;;;4.70;1.00;5.10;99531.00;;;;5052022;28;20476;-77
2022/02/14 03:25:04;;;;;;;10.50;7.90;;;4.70;1.00;5.20;99521.00;;;;5045323;28;20454;-78
2022/02/14 03:27:32;;;;;;;12.50;8.50;;;4.70;1.00;5.20;99511.00;;;;5044694;28;20461;-77
2022/02/14 03:30:01;;;;;;;9.80;8.10;;;4.80;1.00;5.20;99503.00;;;;5041780;28;20571;-79
2022/02/14 03:32:29;;;;;;;11.80;8.90;;;4.90;1.00;5.30;99512.00;;;;5034864;28;20488;-78
2022/02/14 03:34:59;;;;;;;8.63;7.50;;;4.90;1.00;5.40;99524.00;;;;5036443;28;20491;-79
2022/02/14 03:37:28;;;;;;;8.80;6.43;;;5.00;1.00;5.50;99507.00;;;;5038020;28;20457;-78
2022/02/14 03:39:56;;;;;;;11.27;8.03;;;5.00;1.00;5.50;99498.00;;;;5041104;28;20560;-78
2022/02/14 03:42:24;;;;;;;10.33;8.30;;;5.10;1.00;5.50;99478.00;;;;5077846;28;20475;-77
2022/02/14 03:44:52;;;;;;;9.20;8.10;;;5.10;1.00;5.40;99504.00;;;;5055791;28;20454;-78
2022/02/14 03:47:21;;;;;;;9.53;7.47;;;5.00;1.00;5.40;99495.00;;;;5069056;28;20461;-78
2022/02/14 03:49:49;;;;;;;11.27;8.00;;;4.90;1.00;5.30;99493.00;;;;5034880;28;20519;-77
2022/02/14 03:52:19;;;;;;;10.70;7.30;;;4.90;1.00;5.30;99503.00;;;;5068231;28;20459;-80
2022/02/14 03:54:47;;;;;;;11.77;6.80;;;4.90;1.00;5.40;99498.00;;;;5032900;28;20471;-78
2022/02/14 03:57:15;;;;;;;10.37;6.50;;;4.90;1.00;5.30;99492.00;;;;5038178;28;20935;-78
2022/02/14 03:59:43;;;;;;;11.70;7.90;;;4.90;1.00;5.30;99495.00;;;;5046366;28;20492;-77
2022/02/14 04:02:12;;;;;;;6.67;5.03;;;4.80;1.00;5.30;99490.00;;;;5044026;28;20471;-77
2022/02/14 04:04:40;;;;;;;6.27;5.50;;;4.80;1.00;5.40;99490.00;;;;5036721;28;20468;-78
2022/02/14 04:07:08;;;;;;;6.30;5.50;;;4.80;1.00;5.30;99468.00;;;;5038781;28;20467;-78
2022/02/14 04:09:38;;;;;;;8.33;5.60;;;4.90;1.00;5.40;99490.00;;;;5033323;28;20471;-79
2022/02/14 04:12:07;;;;;;;6.50;5.10;;;4.90;1.00;5.40;99484.00;;;;5032974;28;20465;-79
2022/02/14 04:14:35;;;;;;;11.23;6.80;;;5.00;1.00;5.30;99475.00;;;;5033576;28;20468;-79
2022/02/14 04:17:04;;;;;;;10.60;6.47;;;5.00;1.00;5.40;99470.00;;;;5034467;28;21076;-79
2022/02/14 04:19:32;;;;;;;7.90;7.10;;;4.90;1.00;5.40;99479.00;;;;5032238;28;20448;-79
2022/02/14 04:22:00;;;;;;;10.53;7.17;;;4.90;1.00;5.20;99473.00;;;;5031519;28;20449;-79
2022/02/14 04:24:29;;;;;;;6.70;5.57;;;4.80;1.00;5.30;99479.00;;;;5037359;28;20449;-80
2022/02/14 04:26:59;;;;;;;8.73;6.37;;;4.80;1.00;5.20;99461.00;;;;5036158;28;20460;-80
2022/02/14 04:29:27;;;;;;;9.00;6.53;;;4.80;1.00;5.30;99464.00;;;;5040890;28;21160;-80
2022/02/14 04:31:55;;;;;;;9.53;6.57;;;4.70;1.00;5.30;99473.00;;;;5032520;28;20453;-80
2022/02/14 04:34:24;;;;;;;12.57;7.47;;;4.70;1.00;5.20;99469.00;;;;5035153;28;20467;-79
2022/02/14 04:36:53;;;;;;;10.73;6.97;;;4.70;1.00;5.10;99468.00;;;;5033610;28;20567;-78
2022/02/14 04:39:21;;;;;;;6.57;5.27;;;4.60;1.00;5.10;99460.00;;;;5029615;28;20522;-78
2022/02/14 04:41:50;;;;;;;9.70;6.60;;;4.60;1.00;5.00;99470.00;;;;5048161;28;20540;-79
2022/02/14 04:44:19;;;;;;;9.17;6.47;;;4.50;1.00;5.10;99476.00;;;;5049224;28;20487;-79
2022/02/14 04:46:48;;;;;;;9.07;5.60;;;4.50;1.00;5.10;99484.00;;;;5028109;28;20459;-79
2022/02/14 04:49:17;;;;;;;7.83;5.63;;;4.50;1.00;5.10;99467.00;;;;5033194;28;20450;-79
2022/02/14 04:51:45;;;;;;;8.10;6.40;;;4.50;1.00;5.10;99461.00;;;;5031233;28;20448;-79
2022/02/14 04:54:14;;;;;;;8.00;6.47;;;4.60;1.00;4.90;99442.00;;;;5032593;28;20457;-79
2022/02/14 04:56:42;;;;;;;8.63;5.30;;;4.50;1.00;4.90;99458.00;;;;5033755;28;20455;-79
2022/02/14 04:59:10;;;;;;;9.20;6.57;;;4.50;1.00;4.80;99454.00;;;;5034986;28;20483;-79
2022/02/14 05:01:42;;;;;;;7.43;6.30;;;4.40;1.00;4.90;99455.00;;;;5053981;28;20483;-80
2022/02/14 05:04:10;;;;;;;8.50;6.77;;;4.40;1.00;4.70;99454.00;;;;5044683;28;20491;-80
2022/02/14 05:06:41;;;;;;;10.57;5.50;;;4.30;1.00;4.90;99444.00;;;;5067623;28;20436;-79
2022/02/14 05:09:09;;;;;;;10.80;6.97;;;4.30;1.00;4.80;99471.00;;;;5029892;28;20465;-79
2022/02/14 05:11:38;;;;;;;9.53;7.53;;;4.30;1.00;4.80;99451.00;;;;5030826;28;20479;-79
2022/02/14 05:14:06;;;;;;;10.13;7.20;;;4.30;1.00;4.80;99465.00;;;;5033111;28;20470;-80
2022/02/14 05:16:35;;;;;;;8.40;5.80;;;4.30;1.00;4.90;99456.00;;;;5065028;28;20453;-79
2022/02/14 05:19:04;;;;;;;8.30;6.83;;;4.30;1.00;4.90;99453.00;;;;5064081;28;20449;-79
2022/02/14 05:21:33;;;;;;;7.73;6.70;;;4.50;1.00;4.90;99431.00;;;;5036564;28;20475;-80
2022/02/14 05:24:01;;;;;;;10.60;7.50;;;4.40;1.00;4.80;99468.00;;;;5048621;28;20477;-80
2022/02/14 05:26:30;;;;;;;9.93;7.40;;;4.30;1.00;4.70;99467.00;;;;5033510;28;20806;-79
2022/02/14 05:28:58;;;;;;;11.47;7.90;;;4.30;1.00;4.60;99448.00;;;;5032212;28;20447;-79
2022/02/14 05:31:27;;;;;;;13.17;8.47;;;4.20;1.00;4.60;99465.00;;;;5034349;28;20479;-78
2022/02/14 05:33:56;;;;;;;9.70;6.40;;;4.10;1.00;4.70;99454.00;;;;5032757;28;20456;-78
2022/02/14 05:36:25;;;;;;;7.30;5.80;;;4.20;1.00;4.70;99439.00;;;;5034822;28;21290;-79
2022/02/14 05:38:54;;;;;;;9.23;6.43;;;4.20;1.00;4.50;99458.00;;;;5036671;28;20459;-79
2022/02/14 05:41:23;;;;;;;10.73;6.03;;;4.20;1.00;4.60;99468.00;;;;5047476;28;20467;-80
2022/02/14 05:43:51;;;;;;;8.80;6.57;;;4.10;1.00;4.70;99474.00;;;;5034341;28;20480;-79
2022/02/14 05:46:20;;;;;;;10.60;6.60;;;4.20;1.00;4.70;99469.00;;;;5049669;28;20544;-80
2022/02/14 05:48:49;;;;;;;14.37;7.17;;;4.20;1.00;4.80;99469.00;;;;5053486;28;20452;-79
2022/02/14 05:51:17;;;;;;;9.17;7.10;;;4.30;1.00;4.80;99464.00;;;;5019462;28;20498;-79
2022/02/14 05:53:47;;;;;;;9.57;6.37;;;4.30;1.00;4.90;99468.00;;;;5034679;28;21214;-79
2022/02/14 05:56:18;;;;;;;8.47;7.13;;;4.50;1.00;5.00;99460.00;;;;5037530;28;20522;-79
2022/02/14 05:58:46;;;;;;;14.33;7.67;;;4.60;1.00;5.00;99441.00;;;;5036247;28;20474;-79
2022/02/14 06:01:14;;;;;;;15.70;7.83;;;4.70;1.00;5.00;99473.00;;;;5036705;28;20476;-79
2022/02/14 06:03:43;;;;;;;10.87;6.77;;;4.70;1.00;5.20;99480.00;;;;5034187;28;20473;-79
2022/02/14 06:06:11;;;;;;;16.60;7.87;;;4.70;1.00;5.20;99466.00;;;;5032706;28;20453;-79
2022/02/14 06:08:39;;;;;;;8.13;7.30;;;4.80;1.00;5.10;99462.00;;;;5019272;28;21147;-80
2022/02/14 06:11:09;;;;;;;11.00;8.23;;;4.90;1.00;5.20;99445.00;;;;5067335;28;20473;-78
2022/02/14 06:13:37;;;;;;;12.17;7.67;;;4.80;1.00;5.20;99467.00;;;;5040952;28;20462;-78
2022/02/14 06:16:06;;;;;;;9.57;6.60;;;4.80;1.00;5.10;99466.00;;;;5034197;28;20912;-79
2022/02/14 06:18:34;;;;;;;12.13;8.30;;;4.70;1.00;5.00;99466.00;;;;5033429;28;20467;-80
2022/02/14 06:21:03;;;;;;;11.83;7.67;;;4.60;1.00;5.00;99457.00;;;;5035296;28;20464;-80
2022/02/14 06:23:32;;;;;;;9.23;6.97;;;4.60;1.00;5.10;99458.00;;;;5043823;28;20476;-80
2022/02/14 06:26:02;;;;;;;12.67;7.20;;;4.70;1.00;5.00;99476.00;;;;5036394;28;20961;-80
2022/02/14 06:28:38;;;;;;;11.53;6.93;;;4.70;1.00;5.00;99466.00;;;;5021744;28;20487;-79
2022/02/14 06:31:07;;;;;;;12.83;7.00;;;4.70;1.00;5.10;99451.00;;;;5055199;28;20490;-79
2022/02/14 06:33:36;;;;;;;9.10;6.37;;;4.80;1.00;5.20;99452.00;;;;5033715;28;20451;-78
2022/02/14 06:36:07;;;;;;;9.90;7.37;;;4.90;1.00;5.30;99456.00;;;;5038733;28;20445;-79
2022/02/14 06:38:36;;;;;;;8.17;6.30;;;5.00;1.00;5.40;99443.00;;;;5042254;28;20456;-78
2022/02/14 06:41:04;;;;;;;11.47;6.30;;;5.20;1.00;5.40;99442.00;;;;5045142;28;20481;-79
2022/02/14 06:43:34;;;;;;;10.67;6.70;;;5.10;1.00;5.50;99451.00;;;;5050888;28;20485;-78
2022/02/14 06:46:03;;;;;;;11.63;6.90;;;5.50;1.00;5.60;99451.00;;;;5062744;28;20450;-80
2022/02/14 06:48:31;;;;;;;11.87;7.50;;;5.30;1.00;5.70;99431.00;;;;5062769;28;20465;-80
2022/02/14 06:51:00;;;;;;;9.60;7.63;;;5.10;1.00;5.80;99452.00;;;;5060384;28;20463;-80
2022/02/14 06:53:29;;;;;;;15.80;8.33;;;5.50;1.00;5.90;99461.00;;;;5072757;28;20504;-79
2022/02/14 06:55:57;;;;;;;9.73;7.00;;;5.50;1.00;5.90;99451.00;;;;5066267;28;20436;-79
2022/02/14 06:58:25;;;;;;;12.00;7.30;;;6.00;1.00;6.10;99457.00;;;;5072126;28;20456;-79
2022/02/14 07:00:56;;;;;;;13.20;7.37;;;5.80;1.00;6.10;99436.00;;;;5060721;28;20582;-79
2022/02/14 07:03:26;;;;;;;13.50;9.50;;;6.00;1.00;6.20;99451.00;;;;5037821;28;20449;-78
2022/02/14 07:05:55;;;;;;;9.67;6.70;;;6.30;1.00;6.20;99459.00;;;;5041114;28;20452;-79
2022/02/14 07:08:23;;;;;;;15.23;10.37;;;5.90;1.00;6.30;99442.00;;;;5039308;28;20465;-79
2022/02/14 07:10:52;;;;;;;17.73;9.97;;;6.00;1.00;6.40;99443.00;;;;5037028;28;20465;-79
2022/02/14 07:13:20;;;;;;;12.97;9.80;;;6.10;1.00;6.50;99450.00;;;;5061022;28;20448;-79
2022/02/14 07:15:49;;;;;;;12.73;8.80;;;6.20;1.00;6.50;99439.00;;;;5059075;28;20511;-80
2022/02/14 07:18:18;;;;;;;14.83;7.97;;;6.30;1.00;6.60;99429.00;;;;5069062;28;21241;-79
2022/02/14 07:20:47;;;;;;;15.33;8.13;;;6.40;1.00;6.70;99443.00;;;;5037130;28;20486;-79
2022/02/14 07:23:15;;;;;;;12.60;7.60;;;6.60;1.00;6.70;99449.00;;;;5037016;28;20544;-80
2022/02/14 07:25:45;;;;;;;10.00;7.27;;;6.50;1.00;6.70;99464.00;;;;5037174;28;20519;-79
2022/02/14 07:28:13;;;;;;;13.63;8.17;;;6.50;1.00;6.80;99437.00;;;;5034544;28;20527;-80
2022/02/14 07:30:42;;;;;;;13.70;7.70;;;6.90;1.00;6.80;99457.00;;;;5052891;28;20482;-79
2022/02/14 07:33:11;;;;;;;13.30;7.53;;;6.60;1.00;6.80;99469.00;;;;5037557;28;20521;-79
2022/02/14 07:35:41;;;;;;;12.40;7.87;;;6.60;1.00;6.80;99454.00;;;;5038209;28;20459;-78
2022/02/14 07:38:09;;;;;;;16.83;7.73;;;6.70;1.00;6.90;99443.00;;;;5037990;28;20460;-80
2022/02/14 07:40:38;;;;;;;12.27;6.83;;;7.00;1.00;7.00;99437.00;;;;5036086;28;20495;-78
2022/02/14 07:43:06;;;;;;;15.20;8.50;;;6.80;1.00;7.10;99443.00;;;;5035438;28;20463;-77
2022/02/14 07:45:35;;;;;;;8.67;6.97;;;6.90;1.00;7.00;99461.00;;;;5040659;28;20488;-79
2022/02/14 07:48:03;;;;;;;9.33;6.93;;;6.90;1.00;7.10;99459.00;;;;5040976;28;20449;-79
2022/02/14 07:50:32;;;;;;;11.20;6.33;;;6.90;1.00;7.10;99445.00;;;;5069182;28;20481;-78
2022/02/14 07:53:02;;;;;;;10.50;6.77;;;7.00;1.00;7.00;99434.00;;;;5038710;28;21003;-79
2022/02/14 07:55:30;;;;;;;9.00;7.00;;;6.90;1.00;7.00;99436.00;;;;5018547;28;20459;-79
2022/02/14 07:58:00;;;;;;;14.23;6.83;;;6.90;1.00;7.10;99448.00;;;;5036719;28;21003;-79
2022/02/14 08:00:29;;;;;;;9.67;7.10;;;6.90;1.00;7.20;99456.00;;;;5051964;28;20472;-78
2022/02/14 08:02:57;;;;;;;13.30;8.33;;;7.00;1.00;7.30;99455.00;;;;5034504;28;20911;-79
2022/02/14 08:05:26;;;;;;;8.90;6.77;;;7.10;1.00;7.30;99464.00;;;;5036346;28;20479;-78
2022/02/14 08:07:54;;;;;;;14.10;7.13;;;7.20;1.00;7.40;99468.00;;;;5035065;28;20461;-77
2022/02/14 08:10:44;;;;;;;9.00;6.77;;;7.20;1.00;7.50;99468.00;;;;5036585;28;20477;-79
2022/02/14 08:13:12;;;;;;;8.00;6.27;;;7.30;1.00;7.50;99443.00;;;;5041586;28;22975;-79
2022/02/14 08:15:41;;;;;;;15.50;8.30;;;7.30;1.00;7.60;99459.00;;;;5033730;28;20992;-78
2022/02/14 08:18:10;;;;;;;13.47;7.07;;;7.50;1.00;7.70;99447.00;;;;5035437;28;20453;-78
2022/02/14 08:20:39;;;;;;;10.57;7.17;;;7.60;1.00;7.90;99455.00;;;;5031497;28;20492;-78
2022/02/14 08:23:08;;;;;;;9.70;8.10;;;7.70;1.00;8.00;99463.00;;;;5065896;28;20950;-79
2022/02/14 08:25:37;;;;;;;9.37;6.50;;;7.80;1.00;8.10;99453.00;;;;5035765;28;20600;-79
2022/02/14 08:28:07;;;;;;;19.10;8.50;;;8.00;1.00;8.20;99412.00;;;;5034358;28;20456;-79
2022/02/14 08:30:36;;;;;;;17.20;8.20;;;8.10;1.00;8.30;99454.00;;;;5052037;28;20480;-78
2022/02/14 08:33:05;;;;;;;11.57;9.03;;;8.20;1.00;8.40;99418.00;;;;5035783;28;20889;-80
2022/02/14 08:35:34;;;;;;;11.87;6.37;;;8.30;1.00;8.50;99443.00;;;;5035063;28;20538;-79
2022/02/14 08:38:03;;;;;;;9.03;6.30;;;8.40;1.00;8.70;99410.00;;;;5037683;28;20547;-79
2022/02/14 08:40:32;;;;;;;10.50;5.53;;;8.70;1.00;8.80;99425.00;;;;5034974;28;20521;-78
2022/02/14 08:43:01;;;;;;;12.30;7.00;;;8.70;1.00;8.90;99433.00;;;;5035615;28;20578;-78
2022/02/14 08:45:44;;;;;;;14.83;9.10;;;8.80;1.00;9.10;99436.00;;;;5039022;28;20460;-78
2022/02/14 08:48:13;;;;;;;9.10;7.47;;;9.00;1.00;9.20;99436.00;;;;5059786;28;20444;-77
2022/02/14 08:50:42;;;;;;;11.93;7.10;;;9.20;1.00;9.40;99427.00;;;;5042267;28;20477;-79
2022/02/14 08:53:11;;;;;;;9.47;6.50;;;9.40;1.00;9.60;99428.00;;;;5038439;28;20453;-78
2022/02/14 08:55:40;;;;;;;15.30;6.63;;;9.50;1.00;9.60;99417.00;;;;5047560;28;20453;-78
2022/02/14 08:58:08;;;;;;;16.63;7.10;;;9.80;1.00;9.80;99422.00;;;;5034948;28;20476;-79
2022/02/14 09:00:37;;;;;;;15.57;10.20;;;9.80;1.00;9.80;99430.00;;;;5042932;28;20531;-79
2022/02/14 09:03:07;;;;;;;12.63;6.70;;;9.90;1.00;9.90;99422.00;;;;5034849;28;20441;-78
2022/02/14 09:05:35;;;;;;;15.80;7.20;;;9.90;1.00;10.00;99398.00;;;;5036439;28;20488;-78
2022/02/14 09:08:04;;;;;;;12.90;6.80;;;10.00;1.00;10.10;99416.00;;;;5039694;28;21570;-78
2022/02/14 09:10:35;;;;;;;12.40;6.90;;;10.10;1.00;10.20;99394.00;;;;5026256;28;20495;-78
2022/02/14 09:13:04;;;;;;;10.53;6.33;;;10.30;1.00;10.30;99406.00;;;;5038129;28;20496;-79
2022/02/14 09:15:37;;;;;;;9.67;6.50;;;10.40;1.00;10.20;99393.00;;;;5033319;28;20452;-78
2022/02/14 09:18:07;;;;;;;15.10;7.23;;;10.30;1.00;10.20;99371.00;;;;5031277;28;20559;-78
2022/02/14 09:20:36;;;;;;;11.33;6.10;;;10.20;1.00;10.10;99404.00;;;;5067560;28;20511;-79
2022/02/14 09:23:05;;;;;;;13.13;7.03;;;10.20;1.00;10.10;99417.00;;;;5069634;28;20927;-77
2022/02/14 09:25:35;;;;;;;15.83;7.27;;;10.10;1.00;10.10;99396.00;;;;5041021;28;20517;-79
2022/02/14 09:28:04;;;;;;;23.07;7.87;;;10.10;1.00;10.20;99404.00;;;;5076062;28;20448;-79
2022/02/14 09:30:32;;;;;;;12.37;7.90;;;10.10;1.00;10.30;99401.00;;;;5043552;28;20469;-77
2022/02/14 09:33:01;;;;;;;9.30;7.20;;;10.20;1.00;10.50;99393.00;;;;5049269;28;20551;-78
2022/02/14 09:35:30;;;;;;;14.87;7.27;;;10.40;1.00;10.50;99407.00;;;;5058404;28;20553;-78
2022/02/14 09:38:05;;;;;;;18.30;8.30;;;10.50;1.00;10.50;99389.00;;;;5048646;28;20483;-78
2022/02/14 09:40:35;;;;;;;12.07;6.67;;;10.50;1.00;10.60;99396.00;;;;5057689;28;20488;-76
2022/02/14 09:43:13;;;;;;;21.33;9.10;;;10.60;1.00;10.60;99389.00;;;;5063432;28;20482;-77
2022/02/14 09:45:43;;;;;;;13.90;7.70;;;10.60;1.00;10.60;99409.00;;;;5063765;28;20504;-76
2022/02/14 09:48:13;;;;;;;20.23;10.40;;;10.60;1.00;10.70;99380.00;;;;5066617;28;20441;-77
2022/02/14 09:50:44;;;;;;;23.10;12.47;;;10.70;1.00;10.70;99372.00;;;;5064715;28;20510;-78
2022/02/14 09:53:18;;;;;;;24.77;14.10;;;10.60;1.00;10.80;99363.00;;;;5086091;28;20460;-81
2022/02/14 09:55:47;;;;;;;25.10;13.30;;;10.80;1.00;11.00;99382.00;;;;5049285;28;20518;-79
2022/02/14 09:58:16;;;;;;;20.20;13.07;;;11.00;1.00;11.20;99384.00;;;;5052823;28;20554;-77
2022/02/14 10:00:45;;;;;;;17.97;11.63;;;11.20;1.00;11.40;99385.00;;;;5062609;28;20487;-76
2022/02/14 10:03:16;;;;;;;17.57;9.60;;;11.40;1.00;11.50;99392.00;;;;5060696;28;21153;-77
2022/02/14 10:05:50;;;;;;;10.67;5.70;;;11.60;1.00;11.60;99382.00;;;;5056291;28;20464;-78
2022/02/14 10:08:22;;;;;;;9.70;5.43;;;11.60;1.00;11.60;99392.00;;;;5066739;28;20459;-78
2022/02/14 10:10:55;;;;;;;6.53;3.10;;;11.60;1.00;11.80;99379.00;;;;5037365;28;20780;-77
2022/02/14 10:13:35;;;;;;;6.60;3.00;;;11.80;1.00;12.00;99379.00;;;;5040829;28;20487;-79
2022/02/14 10:16:09;;;;;;;7.10;3.13;;;11.90;1.00;12.10;99372.00;;;;5038384;28;20532;-79
2022/02/14 10:18:40;;;;;;;7.07;2.77;;;12.00;1.00;12.30;99370.00;;;;5075010;28;20520;-80
2022/02/14 10:21:26;;;;;;;5.30;2.10;;;12.10;1.00;12.50;99384.00;;;;5042662;28;20499;-78
2022/02/14 10:24:05;;;;;;;6.20;3.10;;;12.30;1.00;12.50;99373.00;;;;5068504;28;20571;-77
2022/02/14 10:26:36;;;;;;;4.90;2.43;;;12.50;1.00;12.60;99352.00;;;;5032056;28;20502;-78
2022/02/14 10:29:14;;;;;;;7.53;3.00;;;12.30;1.00;12.70;99352.00;;;;5036106;28;20518;-79
2022/02/14 10:31:45;;;;;;;8.53;2.70;;;12.40;1.00;12.80;99358.00;;;;5069334;28;20495;-78
2022/02/14 10:34:19;;;;;;;5.47;2.60;;;12.50;1.00;12.90;99359.00;;;;5045728;28;20451;-78
2022/02/14 10:36:51;;;;;;;9.87;2.80;;;12.80;1.00;13.20;99367.00;;;;5049606;28;20519;-78
2022/02/14 10:39:23;;;;;;;6.80;2.43;;;12.90;1.00;13.20;99359.00;;;;5054771;28;21379;-78
2022/02/14 10:41:58;;;;;;;3.30;2.40;;;13.00;1.00;13.40;99353.00;;;;5054983;28;20455;-78
2022/02/14 10:47:21;;;;;;;6.73;2.77;;;13.30;1.00;13.70;99344.00;;;;5002263;28;20567;-81
2022/02/14 10:50:09;;;;;;;4.27;2.50;;;13.50;1.00;13.40;99369.00;;;;5045755;28;20480;-79
2022/02/14 10:52:43;;;;;;;7.93;1.77;;;13.30;1.00;13.30;99373.00;;;;5071159;28;20964;-78
2022/02/14 10:55:16;;;;;;;3.40;2.30;;;13.00;1.00;13.20;99376.00;;;;5060261;28;20496;-77
2022/02/14 10:57:46;;;;;;;5.60;2.30;;;13.10;1.00;13.20;99378.00;;;;5063309;28;20472;-77
2022/02/14 11:00:17;;;;;;;5.73;2.30;;;13.00;1.00;13.30;99372.00;;;;5074366;28;20507;-78
2022/02/14 11:02:48;;;;;;;6.50;1.90;;;13.10;1.00;13.40;99377.00;;;;5063085;28;20465;-79
2022/02/14 11:05:18;;;;;;;4.70;2.73;;;13.20;1.00;13.80;99360.00;;;;5043443;28;20944;-80
2022/02/14 11:07:49;;;;;;;8.70;2.77;;;13.60;1.00;13.90;99362.00;;;;5038398;28;20570;-78
2022/02/14 11:10:19;;;;;;;5.97;3.20;;;13.80;1.00;14.20;99331.00;;;;5040546;28;20473;-78
2022/02/14 11:12:52;;;;;;;3.40;2.13;;;13.90;1.00;14.30;99351.00;;;;5040655;28;20461;-79
2022/02/14 11:15:25;;;;;;;8.53;2.27;;;13.90;1.00;14.10;99370.00;;;;5036643;28;20555;-79
2022/02/14 11:17:57;;;;;;;4.87;2.60;;;13.80;1.00;14.10;99363.00;;;;5054338;28;20451;-79
2022/02/14 11:20:28;;;;;;;7.40;3.00;;;13.90;1.00;14.20;99368.00;;;;5037387;28;20487;-79
2022/02/14 11:23:00;;;;;;;5.43;2.33;;;14.00;1.00;14.30;99363.00;;;;5051443;28;20487;-78